Time;durP1;ratioP1;P1;durP2;ratioP2;P2;SDS_P1;SDS_P2;PMS_P1;PMS_P2;Temp;Humidity;BMP_temperature;BMP_pressure;BME280_temperature;BME280_humidity;BME280_pressure;Samples;Min_cycle;Max_cycle;Signal;HPM_P1;HPM_P2
2022/11/16 00:01:01;;;;;;;3.88;1.90;;;;;;;;;;5007436;28;20029;-70
2022/11/16 00:03:27;;;;;;;7.47;1.52;;;;;;;;;;5011356;28;20049;-70
2022/11/16 00:06:04;;;;;;;6.13;2.55;;;;;;;;;;5012409;28;20088;-70
2022/11/16 00:08:30;;;;;;;5.60;2.50;;;;;;;;;;5007630;28;20072;-70
2022/11/16 00:11:02;;;;;;;4.20;2.95;;;;;;;;;;5012228;28;20482;-70
2022/11/16 00:13:27;;;;;;;6.97;3.63;;;;;;;;;;5008507;28;20022;-70
2022/11/16 00:15:54;;;;;;;6.07;3.77;;;;;;;;;;5008150;28;20378;-70
2022/11/16 00:18:19;;;;;;;3.58;1.73;;;;;;;;;;5008063;28;20648;-70
2022/11/16 00:20:45;;;;;;;10.70;3.35;;;;;;;;;;5010438;28;20024;-70
2022/11/16 00:23:10;;;;;;;3.97;1.90;;;;;;;;;;5008095;28;20453;-70
2022/11/16 00:25:35;;;;;;;10.35;3.58;;;;;;;;;;5011356;28;20287;-70
2022/11/16 00:28:00;;;;;;;9.97;4.03;;;;;;;;;;5011728;28;20021;-70
2022/11/16 00:30:25;;;;;;;7.43;3.30;;;;;;;;;;5010991;28;20676;-70
2022/11/16 00:32:51;;;;;;;8.47;3.17;;;;;;;;;;5012702;28;20010;-70
2022/11/16 00:35:16;;;;;;;4.05;2.30;;;;;;;;;;5010565;28;20921;-70
2022/11/16 00:37:41;;;;;;;6.13;3.53;;;;;;;;;;5007726;28;20037;-70
2022/11/16 00:40:07;;;;;;;9.02;4.20;;;;;;;;;;5009347;28;20680;-70
2022/11/16 00:42:32;;;;;;;6.43;3.30;;;;;;;;;;5010987;28;20104;-70
2022/11/16 00:44:57;;;;;;;6.03;2.57;;;;;;;;;;5011894;28;20064;-70
2022/11/16 00:47:22;;;;;;;4.30;2.33;;;;;;;;;;5011578;28;20903;-70
2022/11/16 00:49:47;;;;;;;8.10;4.43;;;;;;;;;;5011808;28;20265;-70
2022/11/16 00:52:13;;;;;;;9.17;3.73;;;;;;;;;;5004022;28;20022;-70
2022/11/16 00:54:38;;;;;;;5.00;3.23;;;;;;;;;;5009731;28;20265;-70
2022/11/16 00:57:03;;;;;;;6.72;3.55;;;;;;;;;;5012237;28;20332;-70
2022/11/16 00:59:28;;;;;;;4.63;2.67;;;;;;;;;;5010997;28;20025;-70
2022/11/16 01:01:53;;;;;;;6.77;3.47;;;;;;;;;;5011448;28;20032;-70
2022/11/16 01:04:19;;;;;;;6.50;2.65;;;;;;;;;;5009940;28;20637;-70
2022/11/16 01:06:44;;;;;;;9.67;5.07;;;;;;;;;;5005616;28;20041;-70
2022/11/16 01:09:09;;;;;;;6.67;2.13;;;;;;;;;;5010108;28;20287;-70
2022/11/16 01:14:18;;;;;;;8.80;4.43;;;;;;;;;;5010159;28;20291;-70
2022/11/16 01:16:43;;;;;;;7.17;3.60;;;;;;;;;;5010530;28;20458;-70
2022/11/16 01:19:08;;;;;;;10.57;4.70;;;;;;;;;;5007639;28;20508;-70
2022/11/16 01:21:33;;;;;;;7.93;3.73;;;;;;;;;;5005697;28;20280;-70
2022/11/16 01:23:59;;;;;;;9.95;4.40;;;;;;;;;;5007596;28;20285;-70
2022/11/16 01:26:24;;;;;;;10.40;3.80;;;;;;;;;;5010829;28;20480;-70
2022/11/16 01:28:50;;;;;;;7.97;2.92;;;;;;;;;;5010714;28;20498;-70
2022/11/16 01:31:15;;;;;;;10.90;4.15;;;;;;;;;;5010992;28;20022;-70
2022/11/16 01:33:40;;;;;;;6.13;3.97;;;;;;;;;;5009443;28;20022;-70
2022/11/16 01:36:13;;;;;;;4.72;2.78;;;;;;;;;;5004569;28;20022;-70
2022/11/16 01:38:38;;;;;;;6.05;4.15;;;;;;;;;;5010407;28;20041;-70
2022/11/16 01:41:03;;;;;;;6.70;3.28;;;;;;;;;;5011155;28;20040;-70
2022/11/16 01:43:47;;;;;;;9.18;4.45;;;;;;;;;;5009787;28;20105;-70
2022/11/16 01:46:12;;;;;;;9.38;4.15;;;;;;;;;;5010347;28;20041;-70
2022/11/16 01:48:37;;;;;;;7.07;4.13;;;;;;;;;;5006592;28;20089;-70
2022/11/16 01:51:02;;;;;;;11.98;4.85;;;;;;;;;;5005021;28;20280;-71
2022/11/16 01:53:28;;;;;;;14.43;5.15;;;;;;;;;;5009024;28;20034;-70
2022/11/16 01:55:53;;;;;;;9.80;6.10;;;;;;;;;;5011036;28;20445;-70
2022/11/16 01:58:19;;;;;;;10.60;5.00;;;;;;;;;;5009699;28;20081;-70
2022/11/16 02:00:45;;;;;;;10.73;5.68;;;;;;;;;;5010737;28;20045;-70
2022/11/16 02:03:10;;;;;;;3.78;2.05;;;;;;;;;;5003977;28;20028;-70
2022/11/16 02:05:51;;;;;;;7.33;4.57;;;;;;;;;;5007625;28;20597;-71
2022/11/16 02:11:44;;;;;;;15.02;7.85;;;;;;;;;;4985032;28;20529;-70
2022/11/16 02:14:28;;;;;;;14.70;6.32;;;;;;;;;;5008890;28;20030;-70
2022/11/16 02:17:02;;;;;;;9.18;4.53;;;;;;;;;;5006591;28;20043;-70
2022/11/16 02:19:36;;;;;;;16.98;7.03;;;;;;;;;;5006063;28;20021;-70
2022/11/16 02:22:14;;;;;;;11.57;5.95;;;;;;;;;;5009310;28;20041;-70
2022/11/16 02:25:05;;;;;;;11.32;6.25;;;;;;;;;;5008983;28;20022;-70
2022/11/16 02:27:39;;;;;;;9.77;4.80;;;;;;;;;;5006576;28;20282;-71
2022/11/16 02:30:05;;;;;;;16.08;5.55;;;;;;;;;;5007111;28;20100;-70
2022/11/16 02:32:36;;;;;;;11.95;4.68;;;;;;;;;;5007008;28;20586;-70
2022/11/16 02:35:01;;;;;;;;;;;;;;;;;;5009870;28;20053;-70
2022/11/16 02:37:27;;;;;;;7.55;4.72;;;;;;;;;;5008577;28;19960;-70
2022/11/16 02:39:54;;;;;;;7.47;3.40;;;;;;;;;;5010220;28;20025;-70
2022/11/16 02:42:31;;;;;;;7.75;4.05;;;;;;;;;;5008896;28;20142;-70
2022/11/16 02:44:58;;;;;;;8.18;4.57;;;;;;;;;;5008463;28;20458;-69
2022/11/16 02:47:29;;;;;;;14.85;5.60;;;;;;;;;;5005205;28;20053;-70
2022/11/16 02:49:56;;;;;;;11.50;5.75;;;;;;;;;;5010224;28;20017;-70
2022/11/16 02:52:22;;;;;;;10.27;3.80;;;;;;;;;;5008762;28;20018;-70
2022/11/16 02:54:47;;;;;;;8.60;3.58;;;;;;;;;;5008249;28;20087;-70
2022/11/16 02:57:27;;;;;;;8.43;4.30;;;;;;;;;;5008770;28;20046;-70
2022/11/16 02:59:54;;;;;;;6.95;3.47;;;;;;;;;;5002642;28;20812;-70
2022/11/16 03:02:19;;;;;;;9.32;4.78;;;;;;;;;;5008706;28;20386;-70
2022/11/16 03:04:47;;;;;;;6.60;2.83;;;;;;;;;;5009794;28;20022;-70
2022/11/16 03:07:13;;;;;;;7.90;4.70;;;;;;;;;;5009167;28;20641;-70
2022/11/16 03:09:40;;;;;;;9.77;4.75;;;;;;;;;;5008846;28;20018;-70
2022/11/16 03:12:07;;;;;;;7.72;3.65;;;;;;;;;;5009634;28;20454;-70
2022/11/16 03:14:35;;;;;;;9.68;3.85;;;;;;;;;;5007199;28;20487;-70
2022/11/16 03:17:01;;;;;;;5.80;3.28;;;;;;;;;;5010720;28;20526;-70
2022/11/16 03:19:47;;;;;;;3.13;1.83;;;;;;;;;;5013936;28;20071;-70
2022/11/16 03:22:12;;;;;;;8.48;4.53;;;;;;;;;;5012245;28;20076;-70
2022/11/16 03:24:37;;;;;;;8.32;4.20;;;;;;;;;;5012840;28;20089;-70
2022/11/16 03:27:06;;;;;;;7.50;3.15;;;;;;;;;;5013353;28;20101;-70
2022/11/16 03:29:40;;;;;;;7.57;3.83;;;;;;;;;;5006517;28;20014;-70
2022/11/16 03:32:19;;;;;;;9.35;4.15;;;;;;;;;;5012569;28;20010;-70
2022/11/16 03:34:49;;;;;;;5.32;2.63;;;;;;;;;;5011555;28;20018;-70
2022/11/16 03:37:15;;;;;;;9.73;3.13;;;;;;;;;;5013998;28;20021;-70
2022/11/16 03:39:40;;;;;;;9.63;3.42;;;;;;;;;;5013338;28;20030;-70
2022/11/16 03:42:08;;;;;;;5.63;2.10;;;;;;;;;;5012140;28;20017;-70
2022/11/16 03:44:34;;;;;;;8.52;3.13;;;;;;;;;;5008920;28;20022;-70
2022/11/16 03:47:00;;;;;;;7.93;3.00;;;;;;;;;;5013019;28;20462;-70
2022/11/16 03:49:28;;;;;;;6.45;2.85;;;;;;;;;;5011432;28;20022;-70
2022/11/16 03:51:53;;;;;;;2.20;0.93;;;;;;;;;;5010879;28;20317;-69
2022/11/16 03:54:19;;;;;;;5.73;2.97;;;;;;;;;;5012322;28;20022;-70
2022/11/16 03:56:44;;;;;;;8.48;2.80;;;;;;;;;;5006488;28;20288;-70
2022/11/16 03:59:09;;;;;;;3.17;1.63;;;;;;;;;;5010190;28;20254;-70
2022/11/16 04:01:35;;;;;;;4.23;2.03;;;;;;;;;;5012579;28;20738;-71
2022/11/16 04:04:00;;;;;;;3.95;2.13;;;;;;;;;;5012287;28;20358;-70
2022/11/16 04:25:41;;;;;;;5.30;2.50;;;;;;;;;;5012400;28;20080;-70
2022/11/16 04:28:12;;;;;;;4.32;2.20;;;;;;;;;;5011002;28;20021;-70
2022/11/16 04:38:55;;;;;;;2.25;1.23;;;;;;;;;;5007212;28;20560;-70
2022/11/16 04:44:04;;;;;;;1.38;1.15;;;;;;;;;;5011209;28;20032;-70
2022/11/16 04:49:13;;;;;;;1.73;0.95;;;;;;;;;;5011366;28;20040;-70
2022/11/16 04:51:38;;;;;;;4.57;1.77;;;;;;;;;;5007493;28;20429;-70
2022/11/16 04:54:03;;;;;;;3.33;1.48;;;;;;;;;;5005662;23;20310;-70
2022/11/16 04:56:28;;;;;;;6.25;1.20;;;;;;;;;;4991354;28;20028;-70
2022/11/16 04:58:54;;;;;;;2.87;1.30;;;;;;;;;;4992106;28;20034;-70
2022/11/16 05:02:06;;;;;;;2.65;0.80;;;;;;;;;;4992279;28;20371;-70
2022/11/16 05:04:04;;;;;;;3.65;1.50;;;;;;;;;;4980299;28;20025;-70
2022/11/16 05:06:29;;;;;;;1.80;1.20;;;;;;;;;;4977112;28;20387;-70
2022/11/16 05:08:54;;;;;;;2.23;1.30;;;;;;;;;;4981089;28;20041;-70
2022/11/16 05:11:19;;;;;;;4.20;1.20;;;;;;;;;;4973776;28;20290;-70
2022/11/16 05:13:45;;;;;;;2.17;1.00;;;;;;;;;;4972127;28;20270;-70
2022/11/16 05:16:10;;;;;;;3.90;0.87;;;;;;;;;;4977121;28;20285;-70
2022/11/16 05:18:35;;;;;;;3.93;1.20;;;;;;;;;;4971612;28;20309;-70
2022/11/16 05:21:00;;;;;;;1.75;1.00;;;;;;;;;;4976028;28;20780;-70
2022/11/16 05:26:09;;;;;;;1.58;0.93;;;;;;;;;;4973752;28;20524;-70
2022/11/16 05:28:34;;;;;;;5.18;0.90;;;;;;;;;;4973343;28;20123;-70
2022/11/16 05:30:59;;;;;;;2.50;1.00;;;;;;;;;;4970922;28;20023;-70
2022/11/16 05:33:25;;;;;;;1.42;0.82;;;;;;;;;;4980480;28;20391;-70
2022/11/16 05:35:50;;;;;;;2.93;0.40;;;;;;;;;;4977567;28;20464;-70
2022/11/16 05:38:16;;;;;;;1.80;0.80;;;;;;;;;;4971255;28;20322;-70
2022/11/16 05:40:41;;;;;;;4.95;0.80;;;;;;;;;;4972190;28;20027;-70
2022/11/16 05:43:07;;;;;;;1.70;0.73;;;;;;;;;;4971660;28;20394;-70
2022/11/16 05:45:32;;;;;;;1.33;0.80;;;;;;;;;;4976751;28;20451;-70
2022/11/16 05:47:57;;;;;;;2.10;0.70;;;;;;;;;;4976387;28;20297;-71
2022/11/16 05:50:22;;;;;;;2.35;0.85;;;;;;;;;;4976130;28;20273;-70
2022/11/16 05:52:47;;;;;;;2.55;1.00;;;;;;;;;;4979017;28;20022;-70
2022/11/16 05:55:12;;;;;;;3.37;0.73;;;;;;;;;;4974176;28;20041;-70
2022/11/16 05:57:38;;;;;;;1.63;0.90;;;;;;;;;;4981634;28;20324;-70
2022/11/16 06:00:03;;;;;;;3.27;0.87;;;;;;;;;;4978103;28;20797;-71
2022/11/16 06:02:30;;;;;;;2.78;1.13;;;;;;;;;;4975233;28;20280;-70
2022/11/16 06:04:56;;;;;;;2.72;1.05;;;;;;;;;;4969630;28;20398;-70
2022/11/16 06:07:21;;;;;;;2.42;1.17;;;;;;;;;;4978803;28;20026;-70
2022/11/16 06:09:46;;;;;;;3.15;1.55;;;;;;;;;;4977475;28;20470;-70
2022/11/16 06:12:11;;;;;;;6.47;1.37;;;;;;;;;;4979518;28;20517;-71
2022/11/16 06:14:36;;;;;;;4.03;1.60;;;;;;;;;;4972173;28;20297;-69
2022/11/16 06:17:02;;;;;;;5.93;2.10;;;;;;;;;;4979792;28;20018;-70
2022/11/16 06:19:27;;;;;;;2.72;1.75;;;;;;;;;;4977726;28;20369;-70
2022/11/16 06:21:52;;;;;;;3.50;2.38;;;;;;;;;;4981112;28;20032;-70
2022/11/16 06:24:17;;;;;;;3.87;2.00;;;;;;;;;;4975947;28;20114;-69
2022/11/16 06:26:42;;;;;;;7.82;2.05;;;;;;;;;;4980778;28;20277;-70
2022/11/16 06:29:08;;;;;;;4.43;2.15;;;;;;;;;;4977332;28;20023;-71
2022/11/16 06:31:33;;;;;;;5.65;1.95;;;;;;;;;;4972719;28;20033;-71
2022/11/16 06:33:58;;;;;;;6.32;2.17;;;;;;;;;;4988135;28;20014;-71
2022/11/16 06:36:23;;;;;;;3.13;1.80;;;;;;;;;;4978583;28;20071;-70
2022/11/16 06:38:49;;;;;;;5.32;1.70;;;;;;;;;;4981184;28;20809;-70
2022/11/16 06:41:14;;;;;;;5.68;2.00;;;;;;;;;;4967160;28;20058;-70
2022/11/16 06:43:40;;;;;;;11.87;2.03;;;;;;;;;;4974378;28;20076;-70
2022/11/16 06:46:05;;;;;;;5.00;2.10;;;;;;;;;;4970657;28;20713;-70
2022/11/16 06:48:32;;;;;;;4.47;2.30;;;;;;;;;;4975617;28;20348;-70
2022/11/16 06:50:57;;;;;;;10.55;2.30;;;;;;;;;;4974013;28;20078;-71
2022/11/16 06:53:22;;;;;;;5.90;3.23;;;;;;;;;;4972001;28;20026;-70
2022/11/16 06:55:47;;;;;;;6.90;3.25;;;;;;;;;;4972078;28;20750;-70
2022/11/16 06:58:13;;;;;;;6.55;2.90;;;;;;;;;;4970461;28;20682;-70
2022/11/16 07:00:38;;;;;;;6.45;2.40;;;;;;;;;;4971453;28;20030;-70
2022/11/16 07:03:03;;;;;;;7.07;3.17;;;;;;;;;;4976624;28;20025;-69
2022/11/16 07:05:29;;;;;;;6.30;2.63;;;;;;;;;;4986035;28;20046;-69
2022/11/16 07:07:55;;;;;;;5.40;2.72;;;;;;;;;;4982175;28;20304;-69
2022/11/16 07:10:20;;;;;;;8.20;3.08;;;;;;;;;;4981931;28;20475;-71
2022/11/16 07:12:45;;;;;;;10.43;2.55;;;;;;;;;;4980958;28;20153;-71
2022/11/16 07:15:11;;;;;;;11.02;3.15;;;;;;;;;;4976197;28;20084;-71
2022/11/16 07:17:36;;;;;;;12.00;3.25;;;;;;;;;;4972410;28;20023;-70
2022/11/16 07:20:01;;;;;;;7.53;2.80;;;;;;;;;;4975142;28;20027;-70
2022/11/16 07:22:26;;;;;;;13.40;3.70;;;;;;;;;;4978286;28;20394;-70
2022/11/16 07:24:52;;;;;;;7.50;3.90;;;;;;;;;;4980435;28;20080;-70
2022/11/16 07:27:17;;;;;;;8.10;3.73;;;;;;;;;;4981459;28;20093;-70
2022/11/16 07:29:42;;;;;;;8.95;3.97;;;;;;;;;;4980175;28;20261;-70
2022/11/16 07:32:07;;;;;;;5.90;3.33;;;;;;;;;;4973668;28;20102;-70
2022/11/16 07:34:32;;;;;;;9.90;2.90;;;;;;;;;;4980082;28;20250;-70
2022/11/16 07:36:58;;;;;;;7.47;2.83;;;;;;;;;;4970393;28;20286;-70
2022/11/16 07:39:23;;;;;;;10.45;2.72;;;;;;;;;;4970042;28;20322;-68
2022/11/16 07:41:51;;;;;;;6.17;2.50;;;;;;;;;;4979661;28;20438;-69
2022/11/16 07:44:16;;;;;;;11.77;2.85;;;;;;;;;;4968636;28;20290;-69
2022/11/16 07:46:42;;;;;;;6.97;2.17;;;;;;;;;;4976087;28;20076;-69
2022/11/16 07:49:10;;;;;;;15.80;2.17;;;;;;;;;;4972429;28;20344;-69
2022/11/16 07:51:36;;;;;;;5.95;1.92;;;;;;;;;;4974982;28;20081;-70
2022/11/16 07:54:01;;;;;;;9.70;1.83;;;;;;;;;;4967423;28;20034;-70
2022/11/16 07:56:26;;;;;;;7.43;1.95;;;;;;;;;;4974719;28;20526;-71
2022/11/16 07:58:51;;;;;;;8.02;2.72;;;;;;;;;;4974598;28;20019;-71
2022/11/16 08:01:17;;;;;;;5.43;2.03;;;;;;;;;;4969208;28;20043;-69
2022/11/16 08:03:43;;;;;;;11.00;1.70;;;;;;;;;;4980982;28;20277;-69
2022/11/16 08:06:13;;;;;;;11.10;2.75;;;;;;;;;;4979881;28;20030;-69
2022/11/16 08:08:38;;;;;;;12.00;1.75;;;;;;;;;;4984594;28;20478;-70
2022/11/16 08:11:05;;;;;;;12.27;2.78;;;;;;;;;;4979430;28;20290;-69
2022/11/16 08:13:33;;;;;;;11.57;2.58;;;;;;;;;;4972618;28;20018;-69
2022/11/16 08:16:01;;;;;;;9.73;2.08;;;;;;;;;;4979259;28;20018;-70
2022/11/16 08:18:27;;;;;;;8.30;1.63;;;;;;;;;;4977986;28;20034;-69
2022/11/16 08:20:52;;;;;;;9.45;2.13;;;;;;;;;;4972680;28;20019;-69
2022/11/16 08:23:17;;;;;;;7.63;2.27;;;;;;;;;;4969841;28;20027;-69
2022/11/16 08:25:42;;;;;;;8.80;1.77;;;;;;;;;;4971850;28;20273;-69
2022/11/16 08:28:08;;;;;;;5.20;0.73;;;;;;;;;;4977296;28;20322;-69
2022/11/16 08:30:33;;;;;;;13.23;1.80;;;;;;;;;;4975139;28;20278;-69
2022/11/16 08:32:58;;;;;;;8.20;1.80;;;;;;;;;;4986207;28;20277;-70
2022/11/16 08:35:23;;;;;;;10.00;1.47;;;;;;;;;;4973068;28;20373;-70
2022/11/16 08:37:48;;;;;;;10.13;2.90;;;;;;;;;;4970239;28;20662;-69
2022/11/16 08:40:14;;;;;;;7.43;1.37;;;;;;;;;;4981168;28;20434;-70
2022/11/16 08:42:39;;;;;;;8.60;1.75;;;;;;;;;;4977147;28;20266;-70
2022/11/16 08:45:04;;;;;;;6.38;1.17;;;;;;;;;;4972085;28;20030;-70
2022/11/16 08:47:30;;;;;;;7.90;1.83;;;;;;;;;;4972836;28;20041;-69
2022/11/16 08:49:55;;;;;;;8.07;2.00;;;;;;;;;;4972864;28;20018;-70
2022/11/16 08:52:20;;;;;;;10.37;2.00;;;;;;;;;;4972300;28;20103;-70
2022/11/16 08:54:46;;;;;;;2.27;0.70;;;;;;;;;;4985594;28;20328;-70
2022/11/16 08:57:11;;;;;;;13.80;1.83;;;;;;;;;;4971544;28;20638;-70
2022/11/16 08:59:36;;;;;;;11.75;1.75;;;;;;;;;;4972601;28;20344;-69
2022/11/16 09:02:01;;;;;;;9.30;2.03;;;;;;;;;;4983490;28;20049;-69
2022/11/16 09:04:26;;;;;;;7.15;2.05;;;;;;;;;;4972533;28;20603;-69
2022/11/16 09:06:52;;;;;;;14.93;1.40;;;;;;;;;;4972941;28;20422;-69
2022/11/16 09:09:17;;;;;;;13.32;2.40;;;;;;;;;;4971693;28;20297;-69
2022/11/16 09:11:43;;;;;;;9.98;1.85;;;;;;;;;;4972590;28;20023;-69
2022/11/16 09:14:08;;;;;;;15.67;2.33;;;;;;;;;;4971221;28;20431;-70
2022/11/16 09:16:33;;;;;;;5.67;1.73;;;;;;;;;;4979705;28;20349;-69
2022/11/16 09:18:59;;;;;;;15.43;1.55;;;;;;;;;;4974939;28;20278;-69
2022/11/16 09:21:26;;;;;;;17.83;3.00;;;;;;;;;;4976186;28;20391;-69
2022/11/16 09:23:52;;;;;;;14.27;2.17;;;;;;;;;;4971152;28;20399;-70
2022/11/16 09:26:20;;;;;;;7.13;1.73;;;;;;;;;;4973204;28;20033;-69
2022/11/16 09:28:45;;;;;;;6.63;1.42;;;;;;;;;;4972107;28;20026;-69
2022/11/16 09:31:10;;;;;;;8.07;1.45;;;;;;;;;;4977513;28;20030;-69
2022/11/16 09:33:36;;;;;;;11.10;2.13;;;;;;;;;;4971556;28;20030;-70
2022/11/16 09:36:06;;;;;;;6.80;1.48;;;;;;;;;;4972200;28;20282;-70
2022/11/16 09:38:34;;;;;;;8.73;1.75;;;;;;;;;;4972005;28;20027;-69
2022/11/16 09:41:07;;;;;;;2.58;1.23;;;;;;;;;;4972327;28;20026;-69
2022/11/16 09:43:56;;;;;;;2.50;0.90;;;;;;;;;;4971843;28;20062;-70
2022/11/16 09:46:28;;;;;;;1.60;0.52;;;;;;;;;;4976858;28;20019;-70
2022/11/16 09:48:55;;;;;;;12.05;2.25;;;;;;;;;;4971418;28;20030;-71
2022/11/16 09:51:21;;;;;;;7.50;1.52;;;;;;;;;;4976953;28;20038;-70
2022/11/16 09:53:51;;;;;;;6.53;0.98;;;;;;;;;;4972295;28;20063;-70
2022/11/16 09:56:17;;;;;;;3.33;1.20;;;;;;;;;;4972507;28;20038;-70
2022/11/16 09:58:47;;;;;;;16.38;1.50;;;;;;;;;;4973532;28;20022;-70
2022/11/16 10:01:18;;;;;;;16.33;1.70;;;;;;;;;;4973968;28;20591;-70
2022/11/16 10:03:44;;;;;;;13.45;2.13;;;;;;;;;;4975767;28;20080;-69
2022/11/16 10:06:16;;;;;;;15.82;1.58;;;;;;;;;;4972009;28;20023;-69
2022/11/16 10:08:44;;;;;;;14.98;1.25;;;;;;;;;;4975441;28;20026;-70
2022/11/16 10:11:09;;;;;;;10.13;1.33;;;;;;;;;;4970854;28;20568;-70
2022/11/16 10:13:34;;;;;;;3.13;0.63;;;;;;;;;;4971158;28;20170;-70
2022/11/16 10:16:12;;;;;;;10.55;1.60;;;;;;;;;;4971774;28;20026;-70
2022/11/16 10:18:47;;;;;;;11.27;0.93;;;;;;;;;;4970762;28;20030;-70
2022/11/16 10:21:32;;;;;;;8.27;3.17;;;;;;;;;;4974221;28;20022;-70
2022/11/16 10:24:15;;;;;;;6.43;0.88;;;;;;;;;;4971875;28;20538;-69
2022/11/16 10:27:02;;;;;;;6.28;1.02;;;;;;;;;;4971569;28;20034;-70
2022/11/16 10:29:33;;;;;;;11.02;1.63;;;;;;;;;;4971109;28;20047;-70
2022/11/16 10:32:27;;;;;;;4.53;1.27;;;;;;;;;;4971136;28;20042;-70
2022/11/16 10:34:53;;;;;;;14.18;2.17;;;;;;;;;;4952834;28;20027;-69
2022/11/16 10:37:19;;;;;;;9.93;2.20;;;;;;;;;;4971319;28;20394;-70
2022/11/16 10:39:46;;;;;;;4.38;1.20;;;;;;;;;;4975038;28;20080;-70
2022/11/16 10:42:15;;;;;;;8.50;1.25;;;;;;;;;;4970602;28;20487;-70
2022/11/16 10:44:42;;;;;;;11.98;2.55;;;;;;;;;;4970940;28;20081;-70
2022/11/16 10:47:17;;;;;;;16.15;1.20;;;;;;;;;;4968626;28;20033;-70
2022/11/16 10:49:47;;;;;;;3.60;0.85;;;;;;;;;;4971055;28;20096;-70
2022/11/16 10:52:12;;;;;;;;;;;;;;;;;;4971359;28;20018;-70
2022/11/16 10:54:38;;;;;;;2.53;0.57;;;;;;;;;;5025137;23;19921;-69
2022/11/16 10:57:04;;;;;;;13.63;1.05;;;;;;;;;;5006907;28;20382;-69
2022/11/16 10:59:43;;;;;;;4.35;0.80;;;;;;;;;;5011299;28;20474;-70
2022/11/16 11:02:23;;;;;;;3.92;0.75;;;;;;;;;;5012619;28;20022;-69
2022/11/16 11:05:07;;;;;;;4.93;1.50;;;;;;;;;;5007275;28;20022;-70
2022/11/16 11:07:39;;;;;;;4.10;1.08;;;;;;;;;;5007012;28;20036;-70
2022/11/16 11:10:05;;;;;;;3.03;0.80;;;;;;;;;;5009996;28;20018;-69
2022/11/16 11:12:36;;;;;;;12.20;2.35;;;;;;;;;;5008765;28;20522;-69
2022/11/16 11:15:04;;;;;;;4.50;1.00;;;;;;;;;;5008005;28;20022;-70
2022/11/16 11:17:31;;;;;;;2.35;0.60;;;;;;;;;;5005027;28;20080;-69
2022/11/16 11:19:58;;;;;;;4.85;0.60;;;;;;;;;;5003596;28;20030;-69
2022/11/16 11:22:23;;;;;;;10.07;1.10;;;;;;;;;;5009799;28;20018;-69
2022/11/16 11:24:48;;;;;;;4.80;1.27;;;;;;;;;;5003662;28;20014;-69
2022/11/16 11:27:19;;;;;;;8.77;1.92;;;;;;;;;;5008694;28;20285;-69
2022/11/16 11:29:49;;;;;;;7.28;1.38;;;;;;;;;;5010166;28;20022;-70
2022/11/16 11:32:16;;;;;;;2.08;0.90;;;;;;;;;;5000329;28;20029;-69
2022/11/16 11:34:43;;;;;;;10.77;1.15;;;;;;;;;;5002428;28;20038;-69
2022/11/16 11:37:32;;;;;;;5.28;0.55;;;;;;;;;;5005714;28;20018;-69
2022/11/16 11:40:17;;;;;;;4.53;1.43;;;;;;;;;;5006964;28;20026;-69
2022/11/16 11:42:50;;;;;;;2.10;0.93;;;;;;;;;;5018441;28;20018;-69
2022/11/16 11:45:16;;;;;;;6.00;0.80;;;;;;;;;;5021920;28;20025;-69
2022/11/16 11:47:50;;;;;;;7.35;1.67;;;;;;;;;;5010399;28;20045;-69
2022/11/16 11:50:20;;;;;;;2.80;0.77;;;;;;;;;;5006250;28;20148;-69
2022/11/16 11:52:45;;;;;;;6.18;1.33;;;;;;;;;;5013796;28;20033;-69
2022/11/16 11:55:14;;;;;;;6.40;1.50;;;;;;;;;;5011237;28;20030;-69
2022/11/16 11:57:41;;;;;;;11.00;2.22;;;;;;;;;;5011023;28;20021;-69
2022/11/16 12:00:08;;;;;;;9.18;2.25;;;;;;;;;;5007821;28;20032;-69
2022/11/16 12:02:56;;;;;;;9.88;1.17;;;;;;;;;;5008561;28;20485;-69
2022/11/16 12:05:33;;;;;;;5.00;0.50;;;;;;;;;;5009789;28;20025;-69
2022/11/16 12:08:13;;;;;;;3.58;1.05;;;;;;;;;;5008943;28;20148;-69
2022/11/16 12:10:38;;;;;;;3.67;1.08;;;;;;;;;;5004092;28;20014;-70
2022/11/16 12:13:17;;;;;;;4.87;1.00;;;;;;;;;;5006641;28;20018;-70
2022/11/16 12:15:57;;;;;;;7.95;1.30;;;;;;;;;;5010366;28;20489;-70
2022/11/16 12:18:43;;;;;;;5.07;1.08;;;;;;;;;;5009592;28;20105;-70
2022/11/16 12:21:12;;;;;;;7.63;1.00;;;;;;;;;;5007488;28;20022;-70
2022/11/16 12:23:50;;;;;;;6.88;1.00;;;;;;;;;;5006825;28;20021;-70
2022/11/16 12:26:15;;;;;;;13.90;1.00;;;;;;;;;;5009341;28;20057;-70
2022/11/16 12:29:06;;;;;;;2.25;0.40;;;;;;;;;;5011692;28;20447;-70
2022/11/16 12:31:41;;;;;;;2.17;0.82;;;;;;;;;;5010891;28;20026;-70
2022/11/16 12:34:06;;;;;;;7.65;1.30;;;;;;;;;;5011338;28;20549;-70
2022/11/16 12:36:31;;;;;;;7.38;1.10;;;;;;;;;;5008526;28;20160;-70
2022/11/16 12:39:04;;;;;;;3.30;1.20;;;;;;;;;;5010639;28;20025;-70
2022/11/16 12:41:44;;;;;;;2.10;0.60;;;;;;;;;;5003244;28;20132;-69
2022/11/16 12:44:11;;;;;;;4.45;0.82;;;;;;;;;;5009480;28;20022;-70
2022/11/16 12:46:55;;;;;;;4.55;0.80;;;;;;;;;;5011244;28;20137;-70
2022/11/16 12:49:30;;;;;;;11.13;1.70;;;;;;;;;;5007871;28;20045;-70
2022/11/16 12:52:15;;;;;;;3.92;1.00;;;;;;;;;;5007685;28;20022;-70
2022/11/16 12:54:47;;;;;;;5.38;0.80;;;;;;;;;;5005373;28;20049;-70
2022/11/16 12:57:16;;;;;;;5.00;1.05;;;;;;;;;;5010240;28;20727;-70
2022/11/16 12:59:44;;;;;;;8.65;1.35;;;;;;;;;;5010623;28;20109;-70
2022/11/16 13:02:24;;;;;;;6.60;1.27;;;;;;;;;;5010185;28;20382;-70
2022/11/16 13:05:15;;;;;;;5.80;0.80;;;;;;;;;;5015331;28;20051;-70
2022/11/16 13:07:46;;;;;;;7.55;0.90;;;;;;;;;;5003019;28;20041;-70
2022/11/16 13:10:17;;;;;;;6.28;1.17;;;;;;;;;;5008055;28;20288;-70
2022/11/16 13:12:42;;;;;;;;;;;;;;;;;;5012076;28;20437;-71
2022/11/16 13:15:17;;;;;;;5.53;0.70;;;;;;;;;;5009526;28;19980;-70
2022/11/16 13:17:46;;;;;;;7.80;1.33;;;;;;;;;;5011514;28;20030;-70
2022/11/16 13:20:18;;;;;;;8.82;0.90;;;;;;;;;;5006020;28;20083;-70
2022/11/16 13:22:50;;;;;;;2.90;0.95;;;;;;;;;;5006625;28;20084;-70
2022/11/16 13:25:34;;;;;;;3.30;1.10;;;;;;;;;;5010541;28;20022;-70
2022/11/16 13:28:11;;;;;;;7.00;1.10;;;;;;;;;;5007150;28;20057;-70
2022/11/16 13:30:42;;;;;;;4.45;0.65;;;;;;;;;;5009054;28;20022;-70
2022/11/16 13:33:07;;;;;;;3.42;0.82;;;;;;;;;;5010283;28;20498;-70
2022/11/16 13:35:35;;;;;;;0.93;0.43;;;;;;;;;;5006325;28;20129;-70
2022/11/16 13:38:00;;;;;;;7.57;0.70;;;;;;;;;;5005403;28;20279;-69
2022/11/16 13:40:30;;;;;;;4.80;0.70;;;;;;;;;;5006898;28;20089;-69
2022/11/16 13:43:04;;;;;;;1.98;0.90;;;;;;;;;;5005147;28;20650;-69
2022/11/16 13:45:32;;;;;;;5.88;1.48;;;;;;;;;;5009331;28;20522;-69
2022/11/16 13:47:57;;;;;;;3.33;1.10;;;;;;;;;;5005119;28;20030;-70
2022/11/16 13:50:28;;;;;;;1.83;0.63;;;;;;;;;;5005015;28;20017;-70
2022/11/16 13:52:58;;;;;;;9.35;1.52;;;;;;;;;;5012234;28;20026;-70
2022/11/16 13:55:27;;;;;;;1.40;0.50;;;;;;;;;;5006783;28;20053;-70
2022/11/16 13:57:54;;;;;;;1.63;0.73;;;;;;;;;;5012458;28;20061;-69
2022/11/16 14:00:21;;;;;;;6.13;0.60;;;;;;;;;;5004168;28;20026;-69
2022/11/16 14:02:46;;;;;;;4.95;0.73;;;;;;;;;;5002186;28;20517;-69
2022/11/16 14:05:11;;;;;;;5.90;1.40;;;;;;;;;;5004151;28;20053;-69
2022/11/16 14:07:41;;;;;;;7.40;1.08;;;;;;;;;;5009688;28;20479;-69
2022/11/16 14:10:07;;;;;;;6.72;0.70;;;;;;;;;;5010105;28;20026;-69
2022/11/16 14:12:52;;;;;;;8.60;1.80;;;;;;;;;;5010250;28;20010;-69
2022/11/16 14:15:23;;;;;;;3.42;0.80;;;;;;;;;;5005544;28;21440;-69
2022/11/16 14:17:53;;;;;;;2.88;0.80;;;;;;;;;;5001557;28;20104;-69
2022/11/16 14:20:25;;;;;;;1.10;0.65;;;;;;;;;;5000826;28;20503;-69
2022/11/16 14:22:53;;;;;;;6.32;0.60;;;;;;;;;;5002375;28;20033;-69
2022/11/16 14:25:18;;;;;;;4.28;1.10;;;;;;;;;;5008427;28;20101;-69
2022/11/16 14:28:00;;;;;;;5.53;0.80;;;;;;;;;;5007800;28;20117;-70
2022/11/16 14:30:31;;;;;;;4.60;1.25;;;;;;;;;;5007326;28;20084;-69
2022/11/16 14:32:56;;;;;;;1.15;0.30;;;;;;;;;;5007993;28;20029;-69
2022/11/16 14:35:21;;;;;;;5.47;0.88;;;;;;;;;;5001134;28;20097;-69
2022/11/16 14:37:54;;;;;;;8.60;1.17;;;;;;;;;;5005195;28;20026;-70
2022/11/16 14:40:20;;;;;;;8.48;0.88;;;;;;;;;;5009598;28;20037;-68
2022/11/16 14:43:04;;;;;;;4.60;1.30;;;;;;;;;;5006898;28;20145;-69
2022/11/16 14:45:31;;;;;;;3.83;0.85;;;;;;;;;;5006656;28;20026;-69
2022/11/16 14:48:00;;;;;;;4.80;1.30;;;;;;;;;;5008623;28;20018;-70
2022/11/16 14:50:29;;;;;;;5.10;1.52;;;;;;;;;;5003060;28;20022;-68
2022/11/16 14:52:57;;;;;;;3.92;0.88;;;;;;;;;;5007925;28;20014;-69
2022/11/16 14:55:23;;;;;;;7.72;1.20;;;;;;;;;;5006824;28;20029;-70
2022/11/16 14:58:05;;;;;;;10.95;1.40;;;;;;;;;;5007111;28;20050;-67
2022/11/16 15:00:31;;;;;;;8.10;0.70;;;;;;;;;;5004483;28;20037;-69
2022/11/16 15:02:56;;;;;;;4.80;0.80;;;;;;;;;;5003024;28;20105;-68
2022/11/16 15:05:25;;;;;;;7.78;0.98;;;;;;;;;;4999726;28;20022;-68
2022/11/16 15:07:51;;;;;;;6.45;0.95;;;;;;;;;;5001386;28;20034;-68
2022/11/16 15:10:18;;;;;;;8.73;1.95;;;;;;;;;;5009282;28;20084;-68
2022/11/16 15:12:50;;;;;;;5.18;0.70;;;;;;;;;;5011365;28;20030;-68
2022/11/16 15:15:17;;;;;;;9.77;1.02;;;;;;;;;;5012099;28;20025;-68
2022/11/16 15:17:50;;;;;;;4.82;1.15;;;;;;;;;;5011032;28;20026;-68
2022/11/16 15:20:15;;;;;;;3.85;0.82;;;;;;;;;;5008382;28;20395;-68
2022/11/16 15:22:42;;;;;;;5.40;1.10;;;;;;;;;;5006872;28;20029;-68
2022/11/16 15:25:23;;;;;;;4.47;0.70;;;;;;;;;;5011316;28;20102;-68
2022/11/16 15:27:48;;;;;;;7.13;1.00;;;;;;;;;;5007555;28;20132;-68
2022/11/16 15:30:15;;;;;;;8.23;1.00;;;;;;;;;;5010829;28;20441;-68